METAR AND TAF INFORMATION
METAR FOR EGJB
ADDS - METARS form results

(0800 UTC 09 August 2020)
Data provider http://aviationweather.gov/metar/data/
 
METAR text: EGJB 090750Z 03008KT 360V070 CAVOK 19/17 Q1017
Conditions at: EGJB (GUERNSEY AIRPORT, GB) observed 0750 UTC 09 August 2020
Temperature: 19.0°C (66°F)
Dewpoint: 17.0°C (63°F) [RH = 88%]
Pressure (altimeter): 30.03 inches Hg (1017.0 mb)
Winds: from the NNE (30 degrees) at 9 MPH (8 knots; 4.1 m/s)
Visibility: 6 or more miles (10+ km)
Ceiling: ceiling and visibility are OK
Clouds: unknown
Weather: no significant weather observed at this time

METAR text: EGJB 090720Z 03009KT CAVOK 18/17 Q1017
Conditions at: EGJB (GUERNSEY AIRPORT, GB) observed 0720 UTC 09 August 2020
Temperature: 18.0°C (64°F)
Dewpoint: 17.0°C (63°F) [RH = 94%]
Pressure (altimeter): 30.03 inches Hg (1017.0 mb)
Winds: from the NNE (30 degrees) at 10 MPH (9 knots; 4.6 m/s)
Visibility: 6 or more miles (10+ km)
Ceiling: ceiling and visibility are OK
Clouds: unknown
Weather: no significant weather observed at this time

Forecast for: EGJB (GUERNSEY AIRPORT, GB)
Text: TAF EGJB 090756Z 0909/0918 02010KT CAVOK
Forecast period: 0900 to 1800 UTC 09 August 2020
Forecast type: FROM: standard forecast or significant change
Winds: from the NNE (20 degrees) at 12 MPH (10 knots; 5.1 m/s)
Visibility: 6 or more miles (10+ km)
Ceiling: unknown
Clouds: missing
Weather: NSW  (no significant weather)

 AIRPORT MAP

 RUNWAY INFORMATION
Runway 09 Runway length 4800 ft Runway width 148 ft
Runway elevation 303 ft Runway displaced threshold 33 ft Runway heading 88
Runway 27 Runway length 4800 ft Runway width 148 ft
Runway elevation 334 ft Runway displaced threshold 33 ft Runway heading 268

 AIRPORT FREQUENCIES
Type APP Name APP Frequency 128.65 MHZ
Type ATIS Name ATIS Frequency 109.4 MHZ
Type GND Name GND Frequency 121.8 MHZ
Type TWR Name TWR Frequency 119.95 MHZ

 AIRPORT NEAR NAVIGATION AIDS
Type NDB Name Guernsey Frequency 361 KHZ
Type VOR-DME Name Guernsey Frequency 109400 KHZ
Type NDB Name Guernsey Frequency 361 KHZ